Malacca Airport Malacca MY
ICAO: WMKM
IATA:
Category: Medium
Scheduled Services:

Elevation: 35 ft
TransAlt. 11000 ft.

Airport Communications:
:127.45
GND:121.6
TWR:118

WMKM Zoom In..

If you have problems with the map follow the link
https://www.worldairports.se/pages/airport.php?
ICAO=WMKM

Runways:

(A) RW 03 length 7005 ft width 148 ft
ILS 111.70 / hdg 30

(B) RW 21 length 7005 ft width 148 ft
---- / hdg 210

Location; WMKM
Day. 05 / Time. 15.00 Zulu
* QNH: 1013
* Temperature: 27° c. 80.6°f.
* Wind from: 040° Speed 06 kn.
Dewpoint: 22° c.
Visibility: 10 km or more.
Clouds: Few 3000 ft.

WMKM 051500Z 04006KT 310V110 9999 FEW030 27/22 Q1013


Wind From 040°
Speed 06 kn.

 
 
jpsmedia worldairports.se 2019   terms of use